Queen Victoria — ZCEF3 — position and weather

sailwx.info

Track history (hours):
 
Tides and Currents Weather Stations Pressure Air Temp Water Temp Dewpoint Dewpoint Depression Visibility Wind Speed Wind Dir Waves Ship Positions

Queen Victoria

Last reported at 2017-Nov-18 19:30 UTC. Time now 2017-Nov-18 19:52 UTC.
Position N 50°36' W 000°60'.

Length 294 m; draft 8 m.

Type: Passenger vessel. MMSI: 310624000.

Date/timePositionNaut miles runAvg speedWind from/ knotsBaromVisibWave heightAir tempDewpointWater temp
2017-Nov-18 19:30N 50°36' W 000°60'612.8
2017-Nov-18 19:00N 50°43' W 000°59'815.2
2017-Nov-18 18:30N 50°46' W 001°10'611.6
2017-Nov-18 18:00N 50°48' W 001°18'4 8.2
2017-Nov-18 17:30N 50°51' W 001°21'3 4.7
2017-Nov-18 16:57N 50°53' W 001°24'0 0.0
2017-Nov-18 16:24N 50°53' W 001°24'0 0.0
2017-Nov-18 15:54N 50°53' W 001°24'0 0.0
2017-Nov-18 15:24N 50°53' W 001°24'0 0.0
2017-Nov-18 15:00N 50°53' W 001°24'0 0.0
2017-Nov-18 14:30N 50°53' W 001°24'0 0.0
2017-Nov-18 13:54N 50°53' W 001°24'0 0.0
2017-Nov-18 13:30N 50°53' W 001°24'0 0.0
2017-Nov-18 13:00N 50°53' W 001°24'0 0.0
2017-Nov-18 12:18N 50°53' W 001°24'0 0.0
2017-Nov-18 12:00N 50°53' W 001°24'0 0.0
2017-Nov-18 11:30N 50°53' W 001°24'0 0.0
2017-Nov-18 10:54N 50°53' W 001°24'0 0.0
2017-Nov-18 10:27N 50°53' W 001°24'0 0.0
2017-Nov-18 10:00N 50°53' W 001°24'0 0.0
2017-Nov-18 09:24N 50°53' W 001°24'0 0.0
2017-Nov-18 08:54N 50°53' W 001°24'0 0.0
2017-Nov-18 08:21N 50°53' W 001°24'0 0.0
2017-Nov-18 08:00N 50°53' W 001°24'0 0.0
2017-Nov-18 07:30N 50°53' W 001°24'0 0.0
2017-Nov-18 07:00N 50°53' W 001°24'0 0.0
2017-Nov-18 06:30N 50°53' W 001°24'0 0.0
2017-Nov-18 06:00N 50°53' W 001°24'0 0.3
2017-Nov-18 05:30N 50°53' W 001°24'4 7.7
2017-Nov-18 05:00N 50°51' W 001°20'4 8.6
2017-Nov-18 04:31N 50°47' W 001°19'612.9
2017-Nov-18 04:01N 50°46' W 001°09'714.2
2017-Nov-18 03:30N 50°42' W 000°59'510.4
2017-Nov-18 03:01N 50°37' W 000°58'4 8.2
2017-Nov-18 02:30N 50°34' W 001°01'4 7.9
2017-Nov-18 02:00N 50°30' W 001°02'4 7.6
2017-Nov-18 01:30N 50°26' W 001°04'4 7.1
2017-Nov-18 01:00N 50°24' W 001°09'6 7.2
2017-Nov-18 00:08N 50°18' W 001°13'1 7.1
2017-Nov-17 23:58N 50°17' W 001°14'3 7.0
2017-Nov-17 23:30N 50°14' W 001°16'3 6.9
2017-Nov-17 23:00N 50°11' W 001°19'5450.0
2017-Nov-17 23:00N 50°06' W 001°18'3 6.1 340 / 101028.310.8 9.2 0.515.0
2017-Nov-17 22:31N 50°08' W 001°21'4 7.7
2017-Nov-17 22:00N 50°05' W 001°24'5 8.0
2017-Nov-17 21:23N 50°00' W 001°28'3 8.2
2017-Nov-17 20:58N 49°57' W 001°30'4 8.1
2017-Nov-17 20:30N 49°54' W 001°33'4 8.0
2017-Nov-17 20:00N 49°50' W 001°35'4 8.3
2017-Nov-17 19:31N 49°46' W 001°38'4 8.3
2017-Nov-17 19:01N 49°43' W 001°40'3 6.8
2017-Nov-17 18:30N 49°40' W 001°37'1 1.8
2017-Nov-17 18:00N 49°39' W 001°37'0 0.0
2017-Nov-17 17:30N 49°39' W 001°37'0 0.0
2017-Nov-17 17:00N 49°39' W 001°37'0 0.0
2017-Nov-17 16:30N 49°39' W 001°37'0 0.0
2017-Nov-17 16:00N 49°39' W 001°37'0 0.0
2017-Nov-17 15:30N 49°39' W 001°37'0 0.0
2017-Nov-17 15:00N 49°39' W 001°37'0 0.0
2017-Nov-17 14:24N 49°39' W 001°37'0 0.0
2017-Nov-17 14:00N 49°39' W 001°37'0 0.0
2017-Nov-17 13:30N 49°39' W 001°37'0 0.0
2017-Nov-17 12:54N 49°39' W 001°37'0 0.0
2017-Nov-17 12:30N 49°39' W 001°37'0 0.0
2017-Nov-17 11:57N 49°39' W 001°37'0 0.0
2017-Nov-17 11:27N 49°39' W 001°37'0 0.0
2017-Nov-17 11:00N 49°39' W 001°37'0 0.0
2017-Nov-17 10:30N 49°39' W 001°37'0 0.0
2017-Nov-17 10:00N 49°39' W 001°37'0 0.0
2017-Nov-17 09:30N 49°39' W 001°37'0 0.0
2017-Nov-17 09:00N 49°39' W 001°37'0 0.0
2017-Nov-17 08:24N 49°39' W 001°37'0 0.0
2017-Nov-17 08:00N 49°39' W 001°37'0 0.0
2017-Nov-17 07:27N 49°39' W 001°37'0 0.0
2017-Nov-17 07:00N 49°39' W 001°37'0 0.8
2017-Nov-17 06:30N 49°39' W 001°37'3 5.9
2017-Nov-17 06:00N 49°41' W 001°40'5 9.9
2017-Nov-17 05:30N 49°45' W 001°44'612.1
2017-Nov-17 05:00N 49°51' W 001°42'611.2
2017-Nov-17 04:30N 49°56' W 001°38'611.6
2017-Nov-17 04:00N 49°58' W 001°30'611.5
2017-Nov-17 03:30N 50°01' W 001°22'611.3
2017-Nov-17 03:00N 50°04' W 001°14'611.6
2017-Nov-17 02:30N 50°06' W 001°06'510.1
2017-Nov-17 02:00N 50°11' W 001°02'612.2
2017-Nov-17 01:30N 50°12' W 000°52'612.0
2017-Nov-17 01:01N 50°15' W 000°44'1312.4
2017-Nov-16 23:58N 50°21' W 000°26'611.9
2017-Nov-16 23:30N 50°23' W 000°18'611.5
2017-Nov-16 23:00N 50°25' W 000°10'6417.6
2017-Nov-16 23:00N 50°24' E 000°00'4 7.4 040 / 181026.310.8 11.2 6.615.0
2017-Nov-16 22:30N 50°27' W 000°02'611.9
2017-Nov-16 22:00N 50°30' E 000°07'611.7
2017-Nov-16 21:30N 50°32' E 000°15'611.3
2017-Nov-16 21:00N 50°34' E 000°24'510.8
2017-Nov-16 20:30N 50°36' E 000°32'510.7
2017-Nov-16 20:00N 50°38' E 000°40'510.4
2017-Nov-16 19:30N 50°40' E 000°47'510.1
2017-Nov-16 19:00N 50°43' E 000°53'5 9.6
2017-Nov-16 18:30N 50°46' E 000°59'510.2
2017-Nov-16 18:00N 50°49' E 001°06'510.9
2017-Nov-16 17:30N 50°52' E 001°13'611.5
2017-Nov-16 17:00N 50°56' E 001°20'611.8
2017-Nov-16 16:30N 51°01' E 001°26'511.0
2017-Nov-16 16:00N 51°04' E 001°32'510.1
2017-Nov-16 15:30N 51°08' E 001°37'4 8.4
2017-Nov-16 15:00N 51°11' E 001°42'4 8.7
2017-Nov-16 14:30N 51°14' E 001°46'4 8.5
2017-Nov-16 14:00N 51°18' E 001°50'4 8.2
2017-Nov-16 13:30N 51°22' E 001°53'4 8.1
2017-Nov-16 13:00N 51°25' E 001°56'4 7.8
2017-Nov-16 12:30N 51°28' E 001°60'4 7.9
2017-Nov-16 12:00N 51°31' E 002°04'4 8.0
2017-Nov-16 11:30N 51°34' E 002°09'4 8.6
2017-Nov-16 11:00N 51°37' E 002°13'5 9.7
2017-Nov-16 10:30N 51°41' E 002°19'510.3
2017-Nov-16 10:00N 51°45' E 002°24'102663.2
2017-Nov-16 10:00N 51°36' E 002°18'1530.1 250 / 171022.210.8 12.310.214.0
2017-Nov-16 09:30N 51°49' E 002°30'6411.5
2017-Nov-16 03:57N 52°31' E 003°48'511.0
2017-Nov-16 03:30N 52°31' E 003°56'511.0
2017-Nov-16 03:00N 52°31' E 004°05'511.0
2017-Nov-16 02:30N 52°31' E 004°14'611.7
2017-Nov-16 02:00N 52°30' E 004°24'5 9.1
2017-Nov-16 01:30N 52°28' E 004°31'3 7.0
2017-Nov-16 01:01N 52°28' E 004°36'0 0.4
2017-Nov-16 00:31N 52°28' E 004°37'1 1.9
2017-Nov-16 00:00N 52°28' E 004°38'3 6.6
2017-Nov-15 23:31N 52°26' E 004°43'4 7.5
2017-Nov-15 23:00N 52°25' E 004°49'3 5.8
2017-Nov-15 22:30N 52°24' E 004°53'2 3.2
2017-Nov-15 21:58N 52°23' E 004°55'0 0.0
2017-Nov-15 21:28N 52°23' E 004°55'0 0.0
2017-Nov-15 20:58N 52°23' E 004°55'0 0.0
2017-Nov-15 20:28N 52°23' E 004°55'0 0.0
2017-Nov-15 19:58N 52°23' E 004°55'0 0.0
2017-Nov-15 19:28N 52°23' E 004°55'0 0.0
2017-Nov-15 18:58N 52°23' E 004°55'0 0.0
2017-Nov-15 18:28N 52°23' E 004°55'0 0.0
2017-Nov-15 17:58N 52°23' E 004°55'0 0.0
2017-Nov-15 17:28N 52°23' E 004°55'0 0.0
2017-Nov-15 16:58N 52°23' E 004°55'0 0.0
2017-Nov-15 16:28N 52°23' E 004°55'0 0.0
2017-Nov-15 15:58N 52°23' E 004°55'0 0.0
2017-Nov-15 15:28N 52°23' E 004°55'0 0.0
2017-Nov-15 14:58N 52°23' E 004°55'0 0.0
2017-Nov-15 14:28N 52°23' E 004°55'0 0.0
2017-Nov-15 13:58N 52°23' E 004°55'0 0.0
2017-Nov-15 13:28N 52°23' E 004°55'0 0.0
2017-Nov-15 12:58N 52°23' E 004°55'0 0.0
2017-Nov-15 12:28N 52°23' E 004°55'0 0.0
2017-Nov-15 11:58N 52°23' E 004°55'0 0.0
2017-Nov-15 11:28N 52°23' E 004°55'0 0.0
2017-Nov-15 10:55N 52°23' E 004°55'0 0.0
2017-Nov-15 10:28N 52°23' E 004°55'0 0.0
2017-Nov-15 09:58N 52°23' E 004°55'0 0.0
2017-Nov-15 09:28N 52°23' E 004°55'0 0.0
2017-Nov-15 08:58N 52°23' E 004°55'1 2.4
2017-Nov-15 08:28N 52°24' E 004°55'1 2.4
2017-Nov-15 07:58N 52°23' E 004°55'0 0.0
2017-Nov-15 07:28N 52°23' E 004°55'0 0.0
2017-Nov-15 06:58N 52°23' E 004°55'0 0.2
2017-Nov-15 06:31N 52°23' E 004°55'1 1.0
2017-Nov-15 06:00N 52°23' E 004°56'2 3.5
2017-Nov-15 05:31N 52°24' E 004°53'3 6.5
2017-Nov-15 05:00N 52°25' E 004°49'3 6.6
2017-Nov-15 04:30N 52°26' E 004°43'4 7.2
2017-Nov-15 04:01N 52°28' E 004°38'1 2.0
2017-Nov-15 03:30N 52°28' E 004°37'1 1.2
2017-Nov-15 03:00N 52°28' E 004°36'5 9.7
2017-Nov-15 02:31N 52°28' E 004°28'5 9.7
2017-Nov-15 02:00N 52°28' E 004°20'713.4
2017-Nov-15 01:30N 52°29' E 004°09'713.8
2017-Nov-15 01:00N 52°27' E 003°58'713.8
2017-Nov-15 00:30N 52°26' E 003°47'713.5
2017-Nov-15 00:00N 52°23' E 003°36'251579.6
2017-Nov-15 00:00N 52°06' E 003°06'1938.0 220 / 131023.410.8 11.210.414.0
2017-Nov-14 23:30N 52°19' E 003°28'4813.3
2017-Nov-14 19:53N 51°40' E 002°42'513.8
2017-Nov-14 19:31N 51°35' E 002°43'714.1
2017-Nov-14 19:00N 51°28' E 002°42'4 8.2
2017-Nov-14 18:29N 51°24' E 002°45'612.0
2017-Nov-14 17:58N 51°25' E 002°55'714.7
2017-Nov-14 17:31N 51°24' E 003°06'611.1
2017-Nov-14 17:01N 51°21' E 003°12'0 0.2
2017-Nov-14 16:25N 51°20' E 003°12'0 0.0
2017-Nov-14 15:58N 51°20' E 003°12'0 0.0
2017-Nov-14 15:28N 51°20' E 003°12'0 0.0
2017-Nov-14 14:58N 51°20' E 003°12'0 0.0
2017-Nov-14 14:28N 51°20' E 003°12'0 0.0
2017-Nov-14 13:58N 51°20' E 003°12'0 0.0
2017-Nov-14 13:28N 51°20' E 003°12'0 0.0
2017-Nov-14 12:58N 51°20' E 003°12'0 0.0
2017-Nov-14 12:28N 51°20' E 003°12'0 0.0
2017-Nov-14 11:58N 51°20' E 003°12'0 0.0
2017-Nov-14 11:28N 51°20' E 003°12'0 0.0
2017-Nov-14 10:58N 51°20' E 003°12'0 0.0
2017-Nov-14 10:28N 51°20' E 003°12'0 0.0
2017-Nov-14 09:58N 51°20' E 003°12'0 0.0
2017-Nov-14 09:28N 51°20' E 003°12'0 0.0
2017-Nov-14 08:58N 51°20' E 003°12'0 0.0
2017-Nov-14 08:28N 51°20' E 003°12'0 0.0
2017-Nov-14 07:58N 51°20' E 003°12'0 0.0
2017-Nov-14 07:28N 51°20' E 003°12'0 0.0
2017-Nov-14 06:58N 51°20' E 003°12'0 0.1
2017-Nov-14 06:30N 51°21' E 003°12'2 3.0
2017-Nov-14 06:00N 51°22' E 003°11'713.0
2017-Nov-14 05:31N 51°24' E 003°02'713.8
2017-Nov-14 05:00N 51°22' E 002°51'611.4
2017-Nov-14 04:30N 51°22' E 002°42'714.4
2017-Nov-14 04:00N 51°22' E 002°30'815.6
2017-Nov-14 03:30N 51°18' E 002°19'714.7
2017-Nov-14 03:00N 51°14' E 002°10'917.9
2017-Nov-14 02:30N 51°10' E 001°57'917.7
2017-Nov-14 02:00N 51°05' E 001°45'917.9
2017-Nov-14 01:30N 50°60' E 001°34'918.1
2017-Nov-14 01:00N 50°52' E 001°26'918.3
2017-Nov-14 00:30N 50°43' E 001°22'4217.7
2017-Nov-13 22:08N 50°24' E 000°23'418.0
2017-Nov-13 21:56N 50°23' E 000°18'61 3.0
2017-Nov-13 01:59N 50°27' W 001°17'5513.5
2017-Nov-12 21:54N 49°55' W 002°29'714.7
2017-Nov-12 21:25N 49°53' W 002°39'814.9
2017-Nov-12 20:53N 49°51' W 002°51'615.0
2017-Nov-12 20:30N 49°48' W 002°59'915.0
2017-Nov-12 19:53N 49°43' W 003°10'615.2
2017-Nov-12 19:28N 49°39' W 003°18'5515.2
2017-Nov-12 15:52N 49°05' W 004°24'615.2
2017-Nov-12 15:29N 49°02' W 004°31'715.2
2017-Nov-12 15:00N 48°57' W 004°39'815.4
2017-Nov-12 14:29N 48°52' W 004°49'715.5
2017-Nov-12 14:00N 48°47' W 004°57'815.6
2017-Nov-12 13:30N 48°42' W 005°07'713.7
2017-Nov-12 13:00N 48°38' W 005°14'612.7
2017-Nov-12 12:30N 48°33' W 005°21'612.7
2017-Nov-12 12:00N 48°28' W 005°26'612.4
2017-Nov-12 11:30N 48°22' W 005°31'4 8.3
2017-Nov-12 11:00N 48°18' W 005°30'5110.8 350 / 321019.210.8 11.0 4.314.0
2017-Nov-12 10:57N 48°16' W 005°36'714.4
2017-Nov-12 10:30N 48°11' W 005°41'815.7
2017-Nov-12 10:00N 48°04' W 005°47'17717.7
2017-Nov-12 00:00N 45°30' W 007°54'36815.5 280 / 321024.8 5.4 17.012.113.0
2017-Nov-11 00:20N 39°32' W 009°44'617.3
2017-Nov-10 23:58N 39°25' W 009°44'816.6
2017-Nov-10 23:30N 39°17' W 009°44'815.2
2017-Nov-10 23:00N 39°10' W 009°44'713.3
2017-Nov-10 22:30N 39°03' W 009°44'612.9
2017-Nov-10 22:00N 38°57' W 009°44'612.7
2017-Nov-10 21:30N 38°50' W 009°43'612.5
2017-Nov-10 21:00N 38°44' W 009°42'611.9
2017-Nov-10 20:30N 38°39' W 009°40'713.9
2017-Nov-10 20:00N 38°37' W 009°31'612.7
2017-Nov-10 19:30N 38°37' W 009°23'612.8
2017-Nov-10 19:00N 38°41' W 009°17'510.1
2017-Nov-10 18:30N 38°41' W 009°10'2 4.3
2017-Nov-10 17:58N 38°43' W 009°08'0 0.0
2017-Nov-10 17:28N 38°43' W 009°08'0 0.0
2017-Nov-10 16:58N 38°43' W 009°08'0 0.0
2017-Nov-10 16:28N 38°43' W 009°08'0 0.0
2017-Nov-10 15:58N 38°43' W 009°08'0 0.0
2017-Nov-10 15:28N 38°43' W 009°08'0 0.0
2017-Nov-10 14:58N 38°43' W 009°08'0 0.0
2017-Nov-10 14:28N 38°43' W 009°08'0 0.0
2017-Nov-10 13:58N 38°43' W 009°08'0 0.0
2017-Nov-10 13:28N 38°43' W 009°08'0 0.0
2017-Nov-10 12:58N 38°43' W 009°08'0 0.0
2017-Nov-10 12:28N 38°43' W 009°08'0 0.0
2017-Nov-10 11:58N 38°43' W 009°08'0 0.0
2017-Nov-10 11:28N 38°43' W 009°08'0 0.0
2017-Nov-10 10:58N 38°43' W 009°08'0 0.0
2017-Nov-10 10:25N 38°43' W 009°08'0 0.0
2017-Nov-10 09:55N 38°43' W 009°08'0 0.0
2017-Nov-10 09:28N 38°43' W 009°08'0 0.0
2017-Nov-10 08:58N 38°43' W 009°08'0 0.0
2017-Nov-10 08:28N 38°43' W 009°08'0 0.6
2017-Nov-10 08:00N 38°42' W 009°08'4 7.1
2017-Nov-10 07:30N 38°41' W 009°12'510.2
2017-Nov-10 07:00N 38°40' W 009°18'714.2
2017-Nov-10 06:30N 38°35' W 009°25'917.8
2017-Nov-10 06:01N 38°26' W 009°25'1019.9
2017-Nov-10 05:30N 38°16' W 009°24'1020.5
2017-Nov-10 05:01N 38°06' W 009°24'1020.5
2017-Nov-10 04:31N 37°56' W 009°24'1121.0
2017-Nov-10 04:01N 37°45' W 009°23'7018.1
2017-Nov-10 00:08N 36°41' W 008°51'  
Track history (hours):
 
Tides and Currents Weather Stations Pressure Air Temp Water Temp Dewpoint Dewpoint Depression Visibility Wind Speed Wind Dir Waves Ship Positions

Queen Victoria

Last reported at 2017-Nov-18 19:30 UTC. Time now 2017-Nov-18 19:52 UTC.
Position N 50°36' W 000°60'.

Length 294 m; draft 8 m.

Type: Passenger vessel. MMSI: 310624000.

Date/timePositionNaut miles runAvg speedWind from/ knotsBaromVisibWave heightAir tempDewpointWater temp
2017-Nov-18 19:30N 50°36' W 000°60'612.8
2017-Nov-18 19:00N 50°43' W 000°59'815.2
2017-Nov-18 18:30N 50°46' W 001°10'611.6
2017-Nov-18 18:00N 50°48' W 001°18'4 8.2
2017-Nov-18 17:30N 50°51' W 001°21'3 4.7
2017-Nov-18 16:57N 50°53' W 001°24'0 0.0
2017-Nov-18 16:24N 50°53' W 001°24'0 0.0
2017-Nov-18 15:54N 50°53' W 001°24'0 0.0
2017-Nov-18 15:24N 50°53' W 001°24'0 0.0
2017-Nov-18 15:00N 50°53' W 001°24'0 0.0
2017-Nov-18 14:30N 50°53' W 001°24'0 0.0
2017-Nov-18 13:54N 50°53' W 001°24'0 0.0
2017-Nov-18 13:30N 50°53' W 001°24'0 0.0
2017-Nov-18 13:00N 50°53' W 001°24'0 0.0
2017-Nov-18 12:18N 50°53' W 001°24'0 0.0
2017-Nov-18 12:00N 50°53' W 001°24'0 0.0
2017-Nov-18 11:30N 50°53' W 001°24'0 0.0
2017-Nov-18 10:54N 50°53' W 001°24'0 0.0
2017-Nov-18 10:27N 50°53' W 001°24'0 0.0
2017-Nov-18 10:00N 50°53' W 001°24'0 0.0
2017-Nov-18 09:24N 50°53' W 001°24'0 0.0
2017-Nov-18 08:54N 50°53' W 001°24'0 0.0
2017-Nov-18 08:21N 50°53' W 001°24'0 0.0
2017-Nov-18 08:00N 50°53' W 001°24'0 0.0
2017-Nov-18 07:30N 50°53' W 001°24'0 0.0
2017-Nov-18 07:00N 50°53' W 001°24'0 0.0
2017-Nov-18 06:30N 50°53' W 001°24'0 0.0
2017-Nov-18 06:00N 50°53' W 001°24'0 0.3
2017-Nov-18 05:30N 50°53' W 001°24'4 7.7
2017-Nov-18 05:00N 50°51' W 001°20'4 8.6
2017-Nov-18 04:31N 50°47' W 001°19'612.9
2017-Nov-18 04:01N 50°46' W 001°09'714.2
2017-Nov-18 03:30N 50°42' W 000°59'510.4
2017-Nov-18 03:01N 50°37' W 000°58'4 8.2
2017-Nov-18 02:30N 50°34' W 001°01'4 7.9
2017-Nov-18 02:00N 50°30' W 001°02'4 7.6
2017-Nov-18 01:30N 50°26' W 001°04'4 7.1
2017-Nov-18 01:00N 50°24' W 001°09'6 7.2
2017-Nov-18 00:08N 50°18' W 001°13'1 7.1
2017-Nov-17 23:58N 50°17' W 001°14'3 7.0
2017-Nov-17 23:30N 50°14' W 001°16'3 6.9
2017-Nov-17 23:00N 50°11' W 001°19'5450.0
2017-Nov-17 23:00N 50°06' W 001°18'3 6.1 340 / 101028.310.8 9.2 0.515.0
2017-Nov-17 22:31N 50°08' W 001°21'4 7.7
2017-Nov-17 22:00N 50°05' W 001°24'5 8.0
2017-Nov-17 21:23N 50°00' W 001°28'3 8.2
2017-Nov-17 20:58N 49°57' W 001°30'4 8.1
2017-Nov-17 20:30N 49°54' W 001°33'4 8.0
2017-Nov-17 20:00N 49°50' W 001°35'4 8.3
2017-Nov-17 19:31N 49°46' W 001°38'4 8.3
2017-Nov-17 19:01N 49°43' W 001°40'3 6.8
2017-Nov-17 18:30N 49°40' W 001°37'1 1.8
2017-Nov-17 18:00N 49°39' W 001°37'0 0.0
2017-Nov-17 17:30N 49°39' W 001°37'0 0.0
2017-Nov-17 17:00N 49°39' W 001°37'0 0.0
2017-Nov-17 16:30N 49°39' W 001°37'0 0.0
2017-Nov-17 16:00N 49°39' W 001°37'0 0.0
2017-Nov-17 15:30N 49°39' W 001°37'0 0.0
2017-Nov-17 15:00N 49°39' W 001°37'0 0.0
2017-Nov-17 14:24N 49°39' W 001°37'0 0.0
2017-Nov-17 14:00N 49°39' W 001°37'0 0.0
2017-Nov-17 13:30N 49°39' W 001°37'0 0.0
2017-Nov-17 12:54N 49°39' W 001°37'0 0.0
2017-Nov-17 12:30N 49°39' W 001°37'0 0.0
2017-Nov-17 11:57N 49°39' W 001°37'0 0.0
2017-Nov-17 11:27N 49°39' W 001°37'0 0.0
2017-Nov-17 11:00N 49°39' W 001°37'0 0.0
2017-Nov-17 10:30N 49°39' W 001°37'0 0.0
2017-Nov-17 10:00N 49°39' W 001°37'0 0.0
2017-Nov-17 09:30N 49°39' W 001°37'0 0.0
2017-Nov-17 09:00N 49°39' W 001°37'0 0.0
2017-Nov-17 08:24N 49°39' W 001°37'0 0.0
2017-Nov-17 08:00N 49°39' W 001°37'0 0.0
2017-Nov-17 07:27N 49°39' W 001°37'0 0.0
2017-Nov-17 07:00N 49°39' W 001°37'0 0.8
2017-Nov-17 06:30N 49°39' W 001°37'3 5.9
2017-Nov-17 06:00N 49°41' W 001°40'5 9.9
2017-Nov-17 05:30N 49°45' W 001°44'612.1
2017-Nov-17 05:00N 49°51' W 001°42'611.2
2017-Nov-17 04:30N 49°56' W 001°38'611.6
2017-Nov-17 04:00N 49°58' W 001°30'611.5
2017-Nov-17 03:30N 50°01' W 001°22'611.3
2017-Nov-17 03:00N 50°04' W 001°14'611.6
2017-Nov-17 02:30N 50°06' W 001°06'510.1
2017-Nov-17 02:00N 50°11' W 001°02'612.2
2017-Nov-17 01:30N 50°12' W 000°52'612.0
2017-Nov-17 01:01N 50°15' W 000°44'1312.4
2017-Nov-16 23:58N 50°21' W 000°26'611.9
2017-Nov-16 23:30N 50°23' W 000°18'611.5
2017-Nov-16 23:00N 50°25' W 000°10'6417.6
2017-Nov-16 23:00N 50°24' E 000°00'4 7.4 040 / 181026.310.8 11.2 6.615.0
2017-Nov-16 22:30N 50°27' W 000°02'611.9
2017-Nov-16 22:00N 50°30' E 000°07'611.7
2017-Nov-16 21:30N 50°32' E 000°15'611.3
2017-Nov-16 21:00N 50°34' E 000°24'510.8
2017-Nov-16 20:30N 50°36' E 000°32'510.7
2017-Nov-16 20:00N 50°38' E 000°40'510.4
2017-Nov-16 19:30N 50°40' E 000°47'510.1
2017-Nov-16 19:00N 50°43' E 000°53'5 9.6
2017-Nov-16 18:30N 50°46' E 000°59'510.2
2017-Nov-16 18:00N 50°49' E 001°06'510.9
2017-Nov-16 17:30N 50°52' E 001°13'611.5
2017-Nov-16 17:00N 50°56' E 001°20'611.8
2017-Nov-16 16:30N 51°01' E 001°26'511.0
2017-Nov-16 16:00N 51°04' E 001°32'510.1
2017-Nov-16 15:30N 51°08' E 001°37'4 8.4
2017-Nov-16 15:00N 51°11' E 001°42'4 8.7
2017-Nov-16 14:30N 51°14' E 001°46'4 8.5
2017-Nov-16 14:00N 51°18' E 001°50'4 8.2
2017-Nov-16 13:30N 51°22' E 001°53'4 8.1
2017-Nov-16 13:00N 51°25' E 001°56'4 7.8
2017-Nov-16 12:30N 51°28' E 001°60'4 7.9
2017-Nov-16 12:00N 51°31' E 002°04'4 8.0
2017-Nov-16 11:30N 51°34' E 002°09'4 8.6
2017-Nov-16 11:00N 51°37' E 002°13'5 9.7
2017-Nov-16 10:30N 51°41' E 002°19'510.3
2017-Nov-16 10:00N 51°45' E 002°24'102663.2
2017-Nov-16 10:00N 51°36' E 002°18'1530.1 250 / 171022.210.8 12.310.214.0
2017-Nov-16 09:30N 51°49' E 002°30'6411.5
2017-Nov-16 03:57N 52°31' E 003°48'511.0
2017-Nov-16 03:30N 52°31' E 003°56'511.0
2017-Nov-16 03:00N 52°31' E 004°05'511.0
2017-Nov-16 02:30N 52°31' E 004°14'611.7
2017-Nov-16 02:00N 52°30' E 004°24'5 9.1
2017-Nov-16 01:30N 52°28' E 004°31'3 7.0
2017-Nov-16 01:01N 52°28' E 004°36'0 0.4
2017-Nov-16 00:31N 52°28' E 004°37'1 1.9
2017-Nov-16 00:00N 52°28' E 004°38'3 6.6
2017-Nov-15 23:31N 52°26' E 004°43'4 7.5
2017-Nov-15 23:00N 52°25' E 004°49'3 5.8
2017-Nov-15 22:30N 52°24' E 004°53'2 3.2
2017-Nov-15 21:58N 52°23' E 004°55'0 0.0
2017-Nov-15 21:28N 52°23' E 004°55'0 0.0
2017-Nov-15 20:58N 52°23' E 004°55'0 0.0
2017-Nov-15 20:28N 52°23' E 004°55'0 0.0
2017-Nov-15 19:58N 52°23' E 004°55'0 0.0
2017-Nov-15 19:28N 52°23' E 004°55'0 0.0
2017-Nov-15 18:58N 52°23' E 004°55'0 0.0
2017-Nov-15 18:28N 52°23' E 004°55'0 0.0
2017-Nov-15 17:58N 52°23' E 004°55'0 0.0
2017-Nov-15 17:28N 52°23' E 004°55'0 0.0
2017-Nov-15 16:58N 52°23' E 004°55'0 0.0
2017-Nov-15 16:28N 52°23' E 004°55'0 0.0
2017-Nov-15 15:58N 52°23' E 004°55'0 0.0
2017-Nov-15 15:28N 52°23' E 004°55'0 0.0
2017-Nov-15 14:58N 52°23' E 004°55'0 0.0
2017-Nov-15 14:28N 52°23' E 004°55'0 0.0
2017-Nov-15 13:58N 52°23' E 004°55'0 0.0
2017-Nov-15 13:28N 52°23' E 004°55'0 0.0
2017-Nov-15 12:58N 52°23' E 004°55'0 0.0
2017-Nov-15 12:28N 52°23' E 004°55'0 0.0
2017-Nov-15 11:58N 52°23' E 004°55'0 0.0
2017-Nov-15 11:28N 52°23' E 004°55'0 0.0
2017-Nov-15 10:55N 52°23' E 004°55'0 0.0
2017-Nov-15 10:28N 52°23' E 004°55'0 0.0
2017-Nov-15 09:58N 52°23' E 004°55'0 0.0
2017-Nov-15 09:28N 52°23' E 004°55'0 0.0
2017-Nov-15 08:58N 52°23' E 004°55'1 2.4
2017-Nov-15 08:28N 52°24' E 004°55'1 2.4
2017-Nov-15 07:58N 52°23' E 004°55'0 0.0
2017-Nov-15 07:28N 52°23' E 004°55'0 0.0
2017-Nov-15 06:58N 52°23' E 004°55'0 0.2
2017-Nov-15 06:31N 52°23' E 004°55'1 1.0
2017-Nov-15 06:00N 52°23' E 004°56'2 3.5
2017-Nov-15 05:31N 52°24' E 004°53'3 6.5
2017-Nov-15 05:00N 52°25' E 004°49'3 6.6
2017-Nov-15 04:30N 52°26' E 004°43'4 7.2
2017-Nov-15 04:01N 52°28' E 004°38'1 2.0
2017-Nov-15 03:30N 52°28' E 004°37'1 1.2
2017-Nov-15 03:00N 52°28' E 004°36'5 9.7
2017-Nov-15 02:31N 52°28' E 004°28'5 9.7
2017-Nov-15 02:00N 52°28' E 004°20'713.4
2017-Nov-15 01:30N 52°29' E 004°09'713.8
2017-Nov-15 01:00N 52°27' E 003°58'713.8
2017-Nov-15 00:30N 52°26' E 003°47'713.5
2017-Nov-15 00:00N 52°23' E 003°36'251579.6
2017-Nov-15 00:00N 52°06' E 003°06'1938.0 220 / 131023.410.8 11.210.414.0
2017-Nov-14 23:30N 52°19' E 003°28'4813.3
2017-Nov-14 19:53N 51°40' E 002°42'513.8
2017-Nov-14 19:31N 51°35' E 002°43'714.1
2017-Nov-14 19:00N 51°28' E 002°42'4 8.2
2017-Nov-14 18:29N 51°24' E 002°45'612.0
2017-Nov-14 17:58N 51°25' E 002°55'714.7
2017-Nov-14 17:31N 51°24' E 003°06'611.1
2017-Nov-14 17:01N 51°21' E 003°12'0 0.2
2017-Nov-14 16:25N 51°20' E 003°12'0 0.0
2017-Nov-14 15:58N 51°20' E 003°12'0 0.0
2017-Nov-14 15:28N 51°20' E 003°12'0 0.0
2017-Nov-14 14:58N 51°20' E 003°12'0 0.0
2017-Nov-14 14:28N 51°20' E 003°12'0 0.0
2017-Nov-14 13:58N 51°20' E 003°12'0 0.0
2017-Nov-14 13:28N 51°20' E 003°12'0 0.0
2017-Nov-14 12:58N 51°20' E 003°12'0 0.0
2017-Nov-14 12:28N 51°20' E 003°12'0 0.0
2017-Nov-14 11:58N 51°20' E 003°12'0 0.0
2017-Nov-14 11:28N 51°20' E 003°12'0 0.0
2017-Nov-14 10:58N 51°20' E 003°12'0 0.0
2017-Nov-14 10:28N 51°20' E 003°12'0 0.0
2017-Nov-14 09:58N 51°20' E 003°12'0 0.0
2017-Nov-14 09:28N 51°20' E 003°12'0 0.0
2017-Nov-14 08:58N 51°20' E 003°12'0 0.0
2017-Nov-14 08:28N 51°20' E 003°12'0 0.0
2017-Nov-14 07:58N 51°20' E 003°12'0 0.0
2017-Nov-14 07:28N 51°20' E 003°12'0 0.0
2017-Nov-14 06:58N 51°20' E 003°12'0 0.1
2017-Nov-14 06:30N 51°21' E 003°12'2 3.0
2017-Nov-14 06:00N 51°22' E 003°11'713.0
2017-Nov-14 05:31N 51°24' E 003°02'713.8
2017-Nov-14 05:00N 51°22' E 002°51'611.4
2017-Nov-14 04:30N 51°22' E 002°42'714.4
2017-Nov-14 04:00N 51°22' E 002°30'815.6
2017-Nov-14 03:30N 51°18' E 002°19'714.7
2017-Nov-14 03:00N 51°14' E 002°10'917.9
2017-Nov-14 02:30N 51°10' E 001°57'917.7
2017-Nov-14 02:00N 51°05' E 001°45'917.9
2017-Nov-14 01:30N 50°60' E 001°34'918.1
2017-Nov-14 01:00N 50°52' E 001°26'918.3
2017-Nov-14 00:30N 50°43' E 001°22'4217.7
2017-Nov-13 22:08N 50°24' E 000°23'418.0
2017-Nov-13 21:56N 50°23' E 000°18'61 3.0
2017-Nov-13 01:59N 50°27' W 001°17'5513.5
2017-Nov-12 21:54N 49°55' W 002°29'714.7
2017-Nov-12 21:25N 49°53' W 002°39'814.9
2017-Nov-12 20:53N 49°51' W 002°51'615.0
2017-Nov-12 20:30N 49°48' W 002°59'915.0
2017-Nov-12 19:53N 49°43' W 003°10'615.2
2017-Nov-12 19:28N 49°39' W 003°18'5515.2
2017-Nov-12 15:52N 49°05' W 004°24'615.2
2017-Nov-12 15:29N 49°02' W 004°31'715.2
2017-Nov-12 15:00N 48°57' W 004°39'815.4
2017-Nov-12 14:29N 48°52' W 004°49'715.5
2017-Nov-12 14:00N 48°47' W 004°57'815.6
2017-Nov-12 13:30N 48°42' W 005°07'713.7
2017-Nov-12 13:00N 48°38' W 005°14'612.7
2017-Nov-12 12:30N 48°33' W 005°21'612.7
2017-Nov-12 12:00N 48°28' W 005°26'612.4
2017-Nov-12 11:30N 48°22' W 005°31'4 8.3
2017-Nov-12 11:00N 48°18' W 005°30'5110.8 350 / 321019.210.8 11.0 4.314.0
2017-Nov-12 10:57N 48°16' W 005°36'714.4
2017-Nov-12 10:30N 48°11' W 005°41'815.7
2017-Nov-12 10:00N 48°04' W 005°47'17717.7
2017-Nov-12 00:00N 45°30' W 007°54'36815.5 280 / 321024.8 5.4 17.012.113.0
2017-Nov-11 00:20N 39°32' W 009°44'617.3
2017-Nov-10 23:58N 39°25' W 009°44'816.6
2017-Nov-10 23:30N 39°17' W 009°44'815.2
2017-Nov-10 23:00N 39°10' W 009°44'713.3
2017-Nov-10 22:30N 39°03' W 009°44'612.9
2017-Nov-10 22:00N 38°57' W 009°44'612.7
2017-Nov-10 21:30N 38°50' W 009°43'612.5
2017-Nov-10 21:00N 38°44' W 009°42'611.9
2017-Nov-10 20:30N 38°39' W 009°40'713.9
2017-Nov-10 20:00N 38°37' W 009°31'612.7
2017-Nov-10 19:30N 38°37' W 009°23'612.8
2017-Nov-10 19:00N 38°41' W 009°17'510.1
2017-Nov-10 18:30N 38°41' W 009°10'2 4.3
2017-Nov-10 17:58N 38°43' W 009°08'0 0.0
2017-Nov-10 17:28N 38°43' W 009°08'0 0.0
2017-Nov-10 16:58N 38°43' W 009°08'0 0.0
2017-Nov-10 16:28N 38°43' W 009°08'0 0.0
2017-Nov-10 15:58N 38°43' W 009°08'0 0.0
2017-Nov-10 15:28N 38°43' W 009°08'0 0.0
2017-Nov-10 14:58N 38°43' W 009°08'0 0.0
2017-Nov-10 14:28N 38°43' W 009°08'0 0.0
2017-Nov-10 13:58N 38°43' W 009°08'0 0.0
2017-Nov-10 13:28N 38°43' W 009°08'0 0.0
2017-Nov-10 12:58N 38°43' W 009°08'0 0.0
2017-Nov-10 12:28N 38°43' W 009°08'0 0.0
2017-Nov-10 11:58N 38°43' W 009°08'0 0.0
2017-Nov-10 11:28N 38°43' W 009°08'0 0.0
2017-Nov-10 10:58N 38°43' W 009°08'0 0.0
2017-Nov-10 10:25N 38°43' W 009°08'0 0.0
2017-Nov-10 09:55N 38°43' W 009°08'0 0.0
2017-Nov-10 09:28N 38°43' W 009°08'0 0.0
2017-Nov-10 08:58N 38°43' W 009°08'0 0.0
2017-Nov-10 08:28N 38°43' W 009°08'0 0.6
2017-Nov-10 08:00N 38°42' W 009°08'4 7.1
2017-Nov-10 07:30N 38°41' W 009°12'510.2
2017-Nov-10 07:00N 38°40' W 009°18'714.2
2017-Nov-10 06:30N 38°35' W 009°25'917.8
2017-Nov-10 06:01N 38°26' W 009°25'1019.9
2017-Nov-10 05:30N 38°16' W 009°24'1020.5
2017-Nov-10 05:01N 38°06' W 009°24'1020.5
2017-Nov-10 04:31N 37°56' W 009°24'1121.0
2017-Nov-10 04:01N 37°45' W 009°23'7018.1
2017-Nov-10 00:08N 36°41' W 008°51'  

Dump ship's entire track history